createdAt,value
2023-01-19T00:00:48.464Z,952.52
2023-01-19T00:01:48.458Z,952.52
2023-01-19T00:02:48.505Z,952.51
2023-01-19T00:03:48.423Z,952.52
2023-01-19T00:04:48.435Z,952.51
2023-01-19T00:05:48.487Z,952.50
2023-01-19T00:06:48.447Z,952.53
2023-01-19T00:07:48.394Z,952.49
2023-01-19T00:08:48.363Z,952.51
2023-01-19T00:09:48.368Z,952.56
2023-01-19T00:10:48.405Z,952.57
2023-01-19T00:11:49.278Z,952.52
2023-01-19T00:12:48.339Z,952.54
2023-01-19T00:13:48.329Z,952.60
2023-01-19T00:14:48.313Z,952.58
2023-01-19T00:15:48.310Z,952.52
2023-01-19T00:16:49.148Z,952.54
2023-01-19T00:17:48.264Z,952.61
2023-01-19T00:18:48.277Z,952.54
2023-01-19T00:19:48.280Z,952.61
2023-01-19T00:20:48.832Z,952.58
2023-01-19T00:21:48.264Z,952.53
2023-01-19T00:22:48.237Z,952.52
2023-01-19T00:23:48.207Z,952.58
2023-01-19T00:24:48.216Z,952.53
2023-01-19T00:25:48.190Z,952.54
2023-01-19T00:26:48.195Z,952.51
2023-01-19T00:27:48.171Z,952.53
2023-01-19T00:28:48.153Z,952.54
2023-01-19T00:29:48.159Z,952.52
2023-01-19T00:30:48.124Z,952.52
2023-01-19T00:31:48.145Z,952.51
2023-01-19T00:32:48.110Z,952.59
2023-01-19T00:33:48.104Z,952.59
2023-01-19T00:34:48.133Z,952.54
2023-01-19T00:35:48.075Z,952.58
2023-01-19T00:36:48.055Z,952.61
2023-01-19T00:37:48.123Z,952.68
2023-01-19T00:38:48.044Z,952.61
2023-01-19T00:39:48.110Z,952.69
2023-01-19T00:40:48.047Z,952.66
2023-01-19T00:41:48.024Z,952.65
2023-01-19T00:42:48.016Z,952.63
2023-01-19T00:43:48.001Z,952.69
2023-01-19T00:44:47.980Z,952.73
2023-01-19T00:45:48.000Z,952.73
2023-01-19T00:46:48.020Z,952.76
2023-01-19T00:47:47.987Z,952.76
2023-01-19T00:48:47.931Z,952.78
2023-01-19T00:49:47.951Z,952.80
2023-01-19T00:50:47.908Z,952.81
2023-01-19T00:51:47.912Z,952.82
2023-01-19T00:52:47.933Z,952.80
2023-01-19T00:53:47.887Z,952.80
2023-01-19T00:54:47.865Z,952.80
2023-01-19T00:55:47.904Z,952.78
2023-01-19T00:56:47.848Z,952.82
2023-01-19T00:57:47.841Z,952.71
2023-01-19T00:58:47.847Z,952.88
2023-01-19T00:59:47.815Z,952.85
2023-01-19T01:00:47.965Z,952.86
2023-01-19T01:01:47.920Z,952.88
2023-01-19T01:02:47.940Z,952.85
2023-01-19T01:03:47.774Z,952.89
2023-01-19T01:04:47.797Z,952.89
2023-01-19T01:05:47.771Z,952.88
2023-01-19T01:06:47.720Z,952.90
2023-01-19T01:07:47.765Z,952.90
2023-01-19T01:08:47.728Z,952.85
2023-01-19T01:09:47.694Z,952.92
2023-01-19T01:10:47.708Z,952.91
2023-01-19T01:11:47.668Z,952.85
2023-01-19T01:12:56.634Z,952.80
2023-01-19T01:13:47.693Z,952.89
2023-01-19T01:14:47.642Z,952.82
2023-01-19T01:15:47.639Z,952.84
2023-01-19T01:16:47.690Z,952.79
2023-01-19T01:17:47.625Z,952.83
2023-01-19T01:18:47.593Z,952.81
2023-01-19T01:19:47.653Z,952.87
2023-01-19T01:20:47.594Z,952.85
2023-01-19T01:21:47.576Z,952.88
2023-01-19T01:22:47.573Z,952.87
2023-01-19T01:23:47.575Z,952.86
2023-01-19T01:24:47.561Z,952.90
2023-01-19T01:25:47.540Z,952.88
2023-01-19T01:26:47.518Z,952.87
2023-01-19T01:27:47.725Z,952.90
2023-01-19T01:28:47.500Z,952.87
2023-01-19T01:29:47.488Z,952.92
2023-01-19T01:30:47.485Z,952.87
2023-01-19T01:31:47.499Z,952.88
2023-01-19T01:32:47.470Z,952.92
2023-01-19T01:33:47.459Z,952.86
2023-01-19T01:34:47.466Z,952.84
2023-01-19T01:35:47.420Z,952.81
2023-01-19T01:36:47.435Z,952.86
2023-01-19T01:37:47.428Z,952.91
2023-01-19T01:38:47.397Z,952.92
2023-01-19T01:39:47.386Z,952.95
2023-01-19T01:40:47.372Z,953.01
2023-01-19T01:41:47.377Z,952.91
2023-01-19T01:42:47.347Z,953.00
2023-01-19T01:43:47.320Z,953.03
2023-01-19T01:44:47.310Z,953.00
2023-01-19T01:45:47.329Z,952.97
2023-01-19T01:46:47.317Z,952.95
2023-01-19T01:47:47.296Z,953.00
2023-01-19T01:48:47.265Z,953.00
2023-01-19T01:49:47.289Z,952.96
2023-01-19T01:50:47.260Z,952.95
2023-01-19T01:51:47.261Z,952.95
2023-01-19T01:53:07.003Z,952.99
2023-01-19T01:53:47.230Z,952.99
2023-01-19T01:54:47.207Z,952.99
2023-01-19T01:55:47.204Z,953.03
2023-01-19T01:56:47.209Z,953.01
2023-01-19T01:57:47.176Z,953.01
2023-01-19T01:58:47.146Z,952.98
2023-01-19T01:59:47.160Z,953.04
2023-01-19T02:00:47.192Z,953.05
2023-01-19T02:01:47.244Z,953.01
2023-01-19T02:02:47.131Z,953.04
2023-01-19T02:03:47.174Z,953.04
2023-01-19T02:04:47.131Z,953.06
2023-01-19T02:05:47.097Z,953.09
2023-01-19T02:06:47.089Z,953.00
2023-01-19T02:07:47.062Z,953.04
2023-01-19T02:08:47.088Z,953.03
2023-01-19T02:09:47.075Z,953.07
2023-01-19T02:10:47.060Z,953.07
2023-01-19T02:11:47.033Z,953.04
2023-01-19T02:12:47.016Z,953.06
2023-01-19T02:13:47.036Z,953.02
2023-01-19T02:14:47.018Z,953.06
2023-01-19T02:15:46.999Z,953.07
2023-01-19T02:16:46.997Z,953.09
2023-01-19T02:17:46.970Z,953.10
2023-01-19T02:18:46.940Z,953.14
2023-01-19T02:19:46.946Z,953.15
2023-01-19T02:20:46.958Z,953.18
2023-01-19T02:21:46.902Z,953.14
2023-01-19T02:22:46.898Z,953.12
2023-01-19T02:23:46.895Z,953.12
2023-01-19T02:24:46.880Z,953.07
2023-01-19T02:25:46.868Z,953.09
2023-01-19T02:26:46.885Z,953.09
2023-01-19T02:27:46.855Z,953.07
2023-01-19T02:28:46.845Z,953.12
2023-01-19T02:29:46.819Z,953.08
2023-01-19T02:30:46.824Z,953.14
2023-01-19T02:31:46.823Z,953.11
2023-01-19T02:32:46.784Z,953.08
2023-01-19T02:33:46.768Z,953.11
2023-01-19T02:34:46.752Z,953.14
2023-01-19T02:35:46.787Z,953.12
2023-01-19T02:36:46.748Z,953.11
2023-01-19T02:37:46.737Z,953.18
2023-01-19T02:38:46.714Z,953.18
2023-01-19T02:39:46.719Z,953.20
2023-01-19T02:40:46.738Z,953.15
2023-01-19T02:41:46.693Z,953.23
2023-01-19T02:42:46.665Z,953.19
2023-01-19T02:43:46.664Z,953.21
2023-01-19T02:44:46.663Z,953.19
2023-01-19T02:45:46.792Z,953.22
2023-01-19T02:46:46.657Z,953.23
2023-01-19T02:47:46.636Z,953.26
2023-01-19T02:48:46.604Z,953.27
2023-01-19T02:49:47.364Z,953.29
2023-01-19T02:50:46.662Z,953.31
2023-01-19T02:51:46.565Z,953.29
2023-01-19T02:52:46.573Z,953.34
2023-01-19T02:53:46.563Z,953.33
2023-01-19T02:54:46.530Z,953.34
2023-01-19T02:55:46.536Z,953.36
2023-01-19T02:56:46.559Z,953.35
2023-01-19T02:57:46.497Z,953.39
2023-01-19T02:58:46.498Z,953.40
2023-01-19T02:59:46.490Z,953.39
2023-01-19T03:00:46.486Z,953.43
2023-01-19T03:01:46.681Z,953.45
2023-01-19T03:02:46.471Z,953.42
2023-01-19T03:03:46.462Z,953.46
2023-01-19T03:04:46.442Z,953.49
2023-01-19T03:05:46.428Z,953.44
2023-01-19T03:06:46.438Z,953.51
2023-01-19T03:07:46.406Z,953.45
2023-01-19T03:08:46.394Z,953.43
2023-01-19T03:09:46.363Z,953.42
2023-01-19T03:10:46.395Z,953.47
2023-01-19T03:11:46.341Z,953.46
2023-01-19T03:12:46.415Z,953.47
2023-01-19T03:13:46.338Z,953.47
2023-01-19T03:14:46.328Z,953.44
2023-01-19T03:15:46.315Z,953.48
2023-01-19T03:16:46.393Z,953.44
2023-01-19T03:17:46.287Z,953.49
2023-01-19T03:18:46.320Z,953.46
2023-01-19T03:19:46.262Z,953.48
2023-01-19T03:20:46.264Z,953.51
2023-01-19T03:21:46.239Z,953.46
2023-01-19T03:22:46.260Z,953.48
2023-01-19T03:23:46.235Z,953.48
2023-01-19T03:24:46.282Z,953.41
2023-01-19T03:25:46.207Z,953.42
2023-01-19T03:26:46.211Z,953.41
2023-01-19T03:27:46.178Z,953.42
2023-01-19T03:28:46.189Z,953.46
2023-01-19T03:29:46.153Z,953.47
2023-01-19T03:30:46.187Z,953.51
2023-01-19T03:31:46.133Z,953.48
2023-01-19T03:32:46.143Z,953.52
2023-01-19T03:33:46.116Z,953.52
2023-01-19T03:34:46.130Z,953.53
2023-01-19T03:35:46.101Z,953.51
2023-01-19T03:36:46.069Z,953.52
2023-01-19T03:37:46.072Z,953.58
2023-01-19T03:38:46.064Z,953.46
2023-01-19T03:39:46.075Z,953.47
2023-01-19T03:40:46.134Z,953.55
2023-01-19T03:41:46.027Z,953.49
2023-01-19T03:42:46.023Z,953.49
2023-01-19T03:43:45.996Z,953.49
2023-01-19T03:44:46.014Z,953.54
2023-01-19T03:45:46.007Z,953.49
2023-01-19T03:46:45.965Z,953.50
2023-01-19T03:47:45.971Z,953.51
2023-01-19T03:48:45.973Z,953.55
2023-01-19T03:49:45.957Z,953.53
2023-01-19T03:50:45.936Z,953.58
2023-01-19T03:51:45.931Z,953.63
2023-01-19T03:52:45.912Z,953.65
2023-01-19T03:53:45.884Z,953.68
2023-01-19T03:54:45.919Z,953.66
2023-01-19T03:55:45.863Z,953.67
2023-01-19T03:56:45.859Z,953.75
2023-01-19T03:57:45.853Z,953.70
2023-01-19T03:58:45.842Z,953.71
2023-01-19T03:59:45.853Z,953.69
2023-01-19T04:00:45.856Z,953.74
2023-01-19T04:01:46.065Z,953.71
2023-01-19T04:02:45.820Z,953.76
2023-01-19T04:03:45.776Z,953.72
2023-01-19T04:04:45.788Z,953.74
2023-01-19T04:05:45.758Z,953.76
2023-01-19T04:06:45.773Z,953.76
2023-01-19T04:07:45.756Z,953.80
2023-01-19T04:08:45.726Z,953.80
2023-01-19T04:09:45.702Z,953.80
2023-01-19T04:10:45.703Z,953.82
2023-01-19T04:11:45.691Z,953.82
2023-01-19T04:12:45.705Z,953.82
2023-01-19T04:13:45.688Z,953.80
2023-01-19T04:14:45.680Z,953.79
2023-01-19T04:15:45.695Z,953.81
2023-01-19T04:16:45.646Z,953.84
2023-01-19T04:17:45.617Z,953.76
2023-01-19T04:18:45.620Z,953.84
2023-01-19T04:19:45.616Z,953.86
2023-01-19T04:20:45.617Z,953.92
2023-01-19T04:21:45.601Z,953.90
2023-01-19T04:22:45.577Z,953.91
2023-01-19T04:23:45.580Z,953.93
2023-01-19T04:24:45.541Z,953.95
2023-01-19T04:25:45.591Z,953.96
2023-01-19T04:26:45.531Z,953.95
2023-01-19T04:27:45.529Z,954.04
2023-01-19T04:28:45.522Z,954.02
2023-01-19T04:29:45.479Z,954.01
2023-01-19T04:30:45.493Z,954.04
2023-01-19T04:31:45.488Z,954.07
2023-01-19T04:32:45.488Z,954.06
2023-01-19T04:33:45.453Z,954.10
2023-01-19T04:34:45.446Z,954.07
2023-01-19T04:35:45.440Z,954.09
2023-01-19T04:36:45.451Z,954.09
2023-01-19T04:37:45.410Z,954.14
2023-01-19T04:38:45.429Z,954.10
2023-01-19T04:39:45.399Z,954.11
2023-01-19T04:40:45.356Z,954.13
2023-01-19T04:41:45.450Z,954.11
2023-01-19T04:42:45.394Z,954.15
2023-01-19T04:43:45.342Z,954.14
2023-01-19T04:44:45.327Z,954.10
2023-01-19T04:45:45.321Z,954.13
2023-01-19T04:46:45.373Z,954.11
2023-01-19T04:47:45.291Z,954.16
2023-01-19T04:48:45.297Z,954.17
2023-01-19T04:49:45.273Z,954.18
2023-01-19T04:50:45.289Z,954.19
2023-01-19T04:51:45.271Z,954.20
2023-01-19T04:52:45.235Z,954.14
2023-01-19T04:53:45.251Z,954.15
2023-01-19T04:54:45.222Z,954.12
2023-01-19T04:55:45.220Z,954.15
2023-01-19T04:56:45.221Z,954.08
2023-01-19T04:57:45.179Z,954.07
2023-01-19T04:58:45.202Z,954.09
2023-01-19T04:59:45.180Z,954.02
2023-01-19T05:00:45.190Z,954.11
2023-01-19T05:01:45.241Z,954.16
2023-01-19T05:02:45.221Z,954.11
2023-01-19T05:03:45.126Z,954.13
2023-01-19T05:04:45.108Z,954.11
2023-01-19T05:05:45.101Z,954.08
2023-01-19T05:06:45.116Z,954.12
2023-01-19T05:07:45.103Z,954.17
2023-01-19T05:08:45.524Z,954.26
2023-01-19T05:09:45.053Z,954.20
2023-01-19T05:10:45.058Z,954.19
2023-01-19T05:11:45.047Z,954.18
2023-01-19T05:12:45.084Z,954.20
2023-01-19T05:13:45.024Z,954.18
2023-01-19T05:14:45.006Z,954.16
2023-01-19T05:15:45.027Z,954.17
2023-01-19T05:16:44.990Z,954.17
2023-01-19T05:17:44.970Z,954.16
2023-01-19T05:18:44.969Z,954.17
2023-01-19T05:19:44.942Z,954.14
2023-01-19T05:20:44.932Z,954.17
2023-01-19T05:21:44.908Z,954.13
2023-01-19T05:22:44.922Z,954.20
2023-01-19T05:23:44.922Z,954.17
2023-01-19T05:24:44.908Z,954.13
2023-01-19T05:25:44.881Z,954.20
2023-01-19T05:26:44.883Z,954.20
2023-01-19T05:27:44.900Z,954.18
2023-01-19T05:28:44.878Z,954.20
2023-01-19T05:29:44.844Z,954.17
2023-01-19T05:30:44.908Z,954.21
2023-01-19T05:31:44.868Z,954.16
2023-01-19T05:32:44.825Z,954.21
2023-01-19T05:33:44.825Z,954.19
2023-01-19T05:34:44.805Z,954.15
2023-01-19T05:35:44.837Z,954.17
2023-01-19T05:36:45.030Z,954.18
2023-01-19T05:37:44.776Z,954.11
2023-01-19T05:38:44.755Z,954.15
2023-01-19T05:39:44.764Z,954.16
2023-01-19T05:40:44.771Z,954.13
2023-01-19T05:41:44.724Z,954.15
2023-01-19T05:42:44.737Z,954.20
2023-01-19T05:43:44.702Z,954.19
2023-01-19T05:44:44.683Z,954.19
2023-01-19T05:45:44.703Z,954.24
2023-01-19T05:46:44.743Z,954.21
2023-01-19T05:47:44.641Z,954.25
2023-01-19T05:48:44.658Z,954.21
2023-01-19T05:49:44.619Z,954.23
2023-01-19T05:50:44.613Z,954.26
2023-01-19T05:51:44.654Z,954.25
2023-01-19T05:52:44.589Z,954.30
2023-01-19T05:53:44.576Z,954.28
2023-01-19T05:54:44.612Z,954.33
2023-01-19T05:55:44.627Z,954.28
2023-01-19T05:56:44.565Z,954.35
2023-01-19T05:57:44.568Z,954.36
2023-01-19T05:58:44.533Z,954.40
2023-01-19T05:59:44.519Z,954.38
2023-01-19T06:00:45.513Z,954.39
2023-01-19T06:01:44.510Z,954.40
2023-01-19T06:02:44.530Z,954.33
2023-01-19T06:03:44.494Z,954.40
2023-01-19T06:04:44.479Z,954.36
2023-01-19T06:05:44.492Z,954.33
2023-01-19T06:06:44.471Z,954.35
2023-01-19T06:07:44.441Z,954.36
2023-01-19T06:08:44.420Z,954.37
2023-01-19T06:09:46.245Z,954.37
2023-01-19T06:10:44.395Z,954.31
2023-01-19T06:11:44.388Z,954.35
2023-01-19T06:12:44.415Z,954.37
2023-01-19T06:13:44.362Z,954.40
2023-01-19T06:14:44.352Z,954.37
2023-01-19T06:15:44.364Z,954.56
2023-01-19T06:16:44.449Z,954.55
2023-01-19T06:17:44.323Z,954.55
2023-01-19T06:18:44.344Z,954.63
2023-01-19T06:19:44.380Z,954.66
2023-01-19T06:20:44.285Z,954.75
2023-01-19T06:21:44.299Z,954.68
2023-01-19T06:22:44.281Z,954.78
2023-01-19T06:23:44.275Z,954.79
2023-01-19T06:24:44.269Z,954.75
2023-01-19T06:25:44.258Z,954.79
2023-01-19T06:26:46.547Z,954.79
2023-01-19T06:27:44.378Z,954.80
2023-01-19T06:28:44.190Z,954.80
2023-01-19T06:29:44.279Z,954.82
2023-01-19T06:30:44.214Z,954.87
2023-01-19T06:31:44.363Z,954.87
2023-01-19T06:32:46.055Z,954.88
2023-01-19T06:33:44.164Z,954.87
2023-01-19T06:34:44.126Z,954.95
2023-01-19T06:35:44.137Z,954.89
2023-01-19T06:36:44.122Z,954.95
2023-01-19T06:37:44.285Z,955.00
2023-01-19T06:38:48.087Z,955.05
2023-01-19T06:39:44.088Z,955.06
2023-01-19T06:40:44.076Z,955.08
2023-01-19T06:41:44.064Z,955.12
2023-01-19T06:42:44.051Z,955.05
2023-01-19T06:43:44.091Z,955.07
2023-01-19T06:44:44.016Z,955.12
2023-01-19T06:45:45.259Z,955.07
2023-01-19T06:46:44.031Z,955.12
2023-01-19T06:47:44.012Z,955.10
2023-01-19T06:48:43.976Z,955.14
2023-01-19T06:49:44.002Z,955.13
2023-01-19T06:50:43.961Z,955.16
2023-01-19T06:51:43.971Z,955.21
2023-01-19T06:52:43.951Z,955.21
2023-01-19T06:53:44.021Z,955.15
2023-01-19T06:54:43.943Z,955.19
2023-01-19T06:55:44.635Z,955.19
2023-01-19T06:56:43.892Z,955.22
2023-01-19T06:57:45.433Z,955.22
2023-01-19T06:58:43.929Z,955.31
2023-01-19T06:59:43.872Z,955.32
2023-01-19T07:00:44.598Z,955.31
2023-01-19T07:01:43.967Z,955.41
2023-01-19T07:02:44.759Z,955.41
2023-01-19T07:03:45.521Z,955.48
2023-01-19T07:04:44.234Z,955.44
2023-01-19T07:06:04.308Z,955.46
2023-01-19T07:06:45.209Z,955.44
2023-01-19T07:07:43.924Z,955.45
2023-01-19T07:08:43.797Z,955.48
2023-01-19T07:09:43.928Z,955.50
2023-01-19T07:11:26.263Z,955.45
2023-01-19T07:11:43.797Z,955.45
2023-01-19T07:12:44.582Z,955.49
2023-01-19T07:13:43.722Z,955.52
2023-01-19T07:14:43.718Z,955.53
2023-01-19T07:15:43.695Z,955.52
2023-01-19T07:16:43.703Z,955.48
2023-01-19T07:17:43.700Z,955.50
2023-01-19T07:18:43.663Z,955.53
2023-01-19T07:19:44.382Z,955.53
2023-01-19T07:20:43.649Z,955.53
2023-01-19T07:21:43.625Z,955.56
2023-01-19T07:22:43.650Z,955.51
2023-01-19T07:23:43.689Z,955.61
2023-01-19T07:24:43.593Z,955.62
2023-01-19T07:25:43.577Z,955.62
2023-01-19T07:26:43.576Z,955.66
2023-01-19T07:27:43.567Z,955.67
2023-01-19T07:28:45.463Z,955.67
2023-01-19T07:29:43.540Z,955.65
2023-01-19T07:30:43.660Z,955.70
2023-01-19T07:31:43.676Z,955.67
2023-01-19T07:32:43.538Z,955.72
2023-01-19T07:33:43.530Z,955.73
2023-01-19T07:34:43.485Z,955.74
2023-01-19T07:35:43.470Z,955.78
2023-01-19T07:36:43.459Z,955.76
2023-01-19T07:37:43.462Z,955.77
2023-01-19T07:38:43.488Z,955.81
2023-01-19T07:39:43.469Z,955.91
2023-01-19T07:40:43.418Z,955.93
2023-01-19T07:41:43.409Z,955.95
2023-01-19T07:42:43.402Z,955.92
2023-01-19T07:43:43.393Z,955.93
2023-01-19T07:44:43.377Z,955.92
2023-01-19T07:45:43.467Z,955.93
2023-01-19T07:46:43.381Z,955.93
2023-01-19T07:47:43.342Z,955.96
2023-01-19T07:48:43.350Z,955.98
2023-01-19T07:49:43.356Z,955.98
2023-01-19T07:50:43.305Z,956.00
2023-01-19T07:51:43.316Z,956.03
2023-01-19T07:52:43.293Z,956.01
2023-01-19T07:53:43.287Z,956.03
2023-01-19T07:54:43.265Z,956.12
2023-01-19T07:55:43.282Z,956.11
2023-01-19T07:56:43.282Z,956.14
2023-01-19T07:57:43.244Z,956.16
2023-01-19T07:58:43.233Z,956.15
2023-01-19T07:59:43.219Z,956.14
2023-01-19T08:00:43.222Z,956.11
2023-01-19T08:01:43.341Z,956.09
2023-01-19T08:02:43.224Z,956.09
2023-01-19T08:03:43.201Z,956.04
2023-01-19T08:04:43.270Z,956.13
2023-01-19T08:05:43.174Z,956.10
2023-01-19T08:06:43.193Z,956.11
2023-01-19T08:07:43.138Z,956.17
2023-01-19T08:08:43.133Z,956.13
2023-01-19T08:09:43.132Z,956.19
2023-01-19T08:10:43.179Z,956.18
2023-01-19T08:11:43.114Z,956.24
2023-01-19T08:12:43.098Z,956.24
2023-01-19T08:13:43.075Z,956.25
2023-01-19T08:14:43.140Z,956.27
2023-01-19T08:15:43.122Z,956.26
2023-01-19T08:16:43.074Z,956.31
2023-01-19T08:17:43.053Z,956.30
2023-01-19T08:18:43.032Z,956.30
2023-01-19T08:19:43.018Z,956.28
2023-01-19T08:20:43.070Z,956.32
2023-01-19T08:21:43.001Z,956.34
2023-01-19T08:22:42.976Z,956.36
2023-01-19T08:23:43.018Z,956.38
2023-01-19T08:24:42.977Z,956.37
2023-01-19T08:25:42.940Z,956.42
2023-01-19T08:26:42.985Z,956.41
2023-01-19T08:27:42.929Z,956.45
2023-01-19T08:28:42.930Z,956.49
2023-01-19T08:29:42.893Z,956.51
2023-01-19T08:30:43.009Z,956.53
2023-01-19T08:31:43.035Z,956.55
2023-01-19T08:32:42.892Z,956.58
2023-01-19T08:33:42.876Z,956.51
2023-01-19T08:34:42.850Z,956.59
2023-01-19T08:35:42.907Z,956.62
2023-01-19T08:36:42.824Z,956.62
2023-01-19T08:37:42.847Z,956.65
2023-01-19T08:38:42.805Z,956.71
2023-01-19T08:39:42.807Z,956.71
2023-01-19T08:40:42.817Z,956.73
2023-01-19T08:41:42.814Z,956.75
2023-01-19T08:42:42.782Z,956.75
2023-01-19T08:43:42.757Z,956.67
2023-01-19T08:44:57.018Z,956.70
2023-01-19T08:45:42.748Z,956.75
2023-01-19T08:46:42.807Z,956.69
2023-01-19T08:47:42.765Z,956.75
2023-01-19T08:48:42.690Z,956.73
2023-01-19T08:49:42.714Z,956.79
2023-01-19T08:50:42.684Z,956.81
2023-01-19T08:51:42.674Z,956.81
2023-01-19T08:52:42.747Z,956.86
2023-01-19T08:53:42.634Z,956.84
2023-01-19T08:54:42.659Z,956.86
2023-01-19T08:55:42.720Z,956.79
2023-01-19T08:56:42.615Z,956.83
2023-01-19T08:57:42.614Z,956.76
2023-01-19T08:58:42.628Z,956.72
2023-01-19T08:59:42.590Z,956.73
2023-01-19T09:00:42.595Z,956.79
2023-01-19T09:01:42.715Z,956.70
2023-01-19T09:02:42.595Z,956.76
2023-01-19T09:03:42.589Z,956.74
2023-01-19T09:04:42.547Z,956.77
2023-01-19T09:05:42.567Z,956.75
2023-01-19T09:06:42.544Z,956.70
2023-01-19T09:07:42.511Z,956.78
2023-01-19T09:08:42.602Z,956.78
2023-01-19T09:09:42.476Z,956.68
2023-01-19T09:10:42.503Z,956.74
2023-01-19T09:11:42.521Z,956.74
2023-01-19T09:12:42.461Z,956.69
2023-01-19T09:13:42.463Z,956.75
2023-01-19T09:14:42.454Z,956.77
2023-01-19T09:15:42.466Z,956.72
2023-01-19T09:16:42.406Z,956.74
2023-01-19T09:17:42.395Z,956.77
2023-01-19T09:18:42.408Z,956.77
2023-01-19T09:19:42.381Z,956.79
2023-01-19T09:20:42.370Z,956.82
2023-01-19T09:21:42.351Z,956.86
2023-01-19T09:22:42.403Z,956.87
2023-01-19T09:23:42.461Z,956.94
2023-01-19T09:24:43.092Z,956.91
2023-01-19T09:25:42.314Z,956.96
2023-01-19T09:26:42.321Z,956.98
2023-01-19T09:27:42.296Z,956.98
2023-01-19T09:28:42.295Z,956.99
2023-01-19T09:29:42.470Z,957.01
2023-01-19T09:30:42.389Z,957.07
2023-01-19T09:31:42.267Z,957.07
2023-01-19T09:32:42.290Z,957.10
2023-01-19T09:33:42.230Z,957.17
2023-01-19T09:34:42.259Z,957.17
2023-01-19T09:35:42.218Z,957.19
2023-01-19T09:36:42.396Z,957.24
2023-01-19T09:37:43.536Z,957.22
2023-01-19T09:38:42.201Z,957.26
2023-01-19T09:39:43.691Z,957.28
2023-01-19T09:40:42.956Z,957.26
2023-01-19T09:41:42.959Z,957.25
2023-01-19T09:42:42.165Z,957.29
2023-01-19T09:43:42.134Z,957.31
2023-01-19T09:44:42.139Z,957.31
2023-01-19T09:45:42.086Z,957.30
2023-01-19T09:46:42.272Z,957.26
2023-01-19T09:47:42.439Z,957.35
2023-01-19T09:48:42.063Z,957.28
2023-01-19T09:49:42.062Z,957.29
2023-01-19T09:50:44.094Z,957.32
2023-01-19T09:51:42.076Z,957.35
2023-01-19T09:52:42.394Z,957.30
2023-01-19T09:53:42.015Z,957.29
2023-01-19T09:54:42.008Z,957.31
2023-01-19T09:55:41.999Z,957.32
2023-01-19T09:56:41.985Z,957.36
2023-01-19T09:57:42.055Z,957.32
2023-01-19T09:58:41.975Z,957.31
2023-01-19T09:59:42.112Z,957.27
2023-01-19T10:00:41.969Z,957.27
2023-01-19T10:01:42.024Z,957.27
2023-01-19T10:02:42.049Z,957.25
2023-01-19T10:03:41.923Z,957.29
2023-01-19T10:04:41.960Z,957.29
2023-01-19T10:05:41.892Z,957.28
2023-01-19T10:06:41.904Z,957.29
2023-01-19T10:07:41.873Z,957.31
2023-01-19T10:08:41.861Z,957.30
2023-01-19T10:09:41.848Z,957.34
2023-01-19T10:10:41.870Z,957.37
2023-01-19T10:11:52.006Z,957.34
2023-01-19T10:12:41.809Z,957.36
2023-01-19T10:13:41.796Z,957.33
2023-01-19T10:14:41.792Z,957.35
2023-01-19T10:15:41.770Z,957.25
2023-01-19T10:16:41.784Z,957.33
2023-01-19T10:17:41.773Z,957.34
2023-01-19T10:18:41.841Z,957.33
2023-01-19T10:19:41.723Z,957.35
2023-01-19T10:20:41.760Z,957.35
2023-01-19T10:21:41.725Z,957.30
2023-01-19T10:22:41.760Z,957.37
2023-01-19T10:23:41.776Z,957.34
2023-01-19T10:24:41.691Z,957.33
2023-01-19T10:25:41.736Z,957.36
2023-01-19T10:26:42.655Z,957.34
2023-01-19T10:27:41.678Z,957.42
2023-01-19T10:28:41.676Z,957.39
2023-01-19T10:29:41.614Z,957.40
2023-01-19T10:30:41.651Z,957.40
2023-01-19T10:31:41.778Z,957.42
2023-01-19T10:32:41.642Z,957.42
2023-01-19T10:33:41.647Z,957.42
2023-01-19T10:34:41.618Z,957.42
2023-01-19T10:35:41.610Z,957.41
2023-01-19T10:36:41.578Z,957.35
2023-01-19T10:37:42.168Z,957.28
2023-01-19T10:38:41.548Z,957.35
2023-01-19T10:39:41.561Z,957.41
2023-01-19T10:40:41.557Z,957.42
2023-01-19T10:41:41.509Z,957.45
2023-01-19T10:42:41.487Z,957.41
2023-01-19T10:43:41.560Z,957.41
2023-01-19T10:44:43.117Z,957.45
2023-01-19T10:45:41.518Z,957.43
2023-01-19T10:46:41.432Z,957.52
2023-01-19T10:47:41.547Z,957.43
2023-01-19T10:48:41.560Z,957.48
2023-01-19T10:49:41.457Z,957.46
2023-01-19T10:50:41.521Z,957.49
2023-01-19T10:51:41.485Z,957.48
2023-01-19T10:52:41.382Z,957.51
2023-01-19T10:53:41.442Z,957.49
2023-01-19T10:54:41.366Z,957.56
2023-01-19T10:55:41.422Z,957.51
2023-01-19T10:56:41.392Z,957.48
2023-01-19T10:57:41.350Z,957.52
2023-01-19T10:58:41.367Z,957.55
2023-01-19T10:59:41.346Z,957.53
2023-01-19T11:00:41.367Z,957.50
2023-01-19T11:01:41.471Z,957.55
2023-01-19T11:02:41.371Z,957.52
2023-01-19T11:03:41.290Z,957.53
2023-01-19T11:04:41.247Z,957.60
2023-01-19T11:05:42.173Z,957.55
2023-01-19T11:06:41.232Z,957.57
2023-01-19T11:07:41.255Z,957.65
2023-01-19T11:08:41.239Z,957.66
2023-01-19T11:09:42.313Z,957.60
2023-01-19T11:10:41.271Z,957.59
2023-01-19T11:11:41.448Z,957.61
2023-01-19T11:12:41.277Z,957.63
2023-01-19T11:13:42.427Z,957.66
2023-01-19T11:14:41.147Z,957.63
2023-01-19T11:15:41.162Z,957.63
2023-01-19T11:16:41.161Z,957.62
2023-01-19T11:17:41.162Z,957.62
2023-01-19T11:18:41.844Z,957.59
2023-01-19T11:19:41.076Z,957.66
2023-01-19T11:20:41.106Z,957.65
2023-01-19T11:21:41.064Z,957.63
2023-01-19T11:22:41.094Z,957.62
2023-01-19T11:23:41.086Z,957.57
2023-01-19T11:24:41.030Z,957.57
2023-01-19T11:25:41.038Z,957.61
2023-01-19T11:26:41.064Z,957.63
2023-01-19T11:27:41.000Z,957.66
2023-01-19T11:28:42.491Z,957.60
2023-01-19T11:29:40.995Z,957.61
2023-01-19T11:30:41.153Z,957.65
2023-01-19T11:31:41.051Z,957.64
2023-01-19T11:32:40.981Z,957.64
2023-01-19T11:33:40.978Z,957.70
2023-01-19T11:34:40.908Z,957.68
2023-01-19T11:35:40.976Z,957.75
2023-01-19T11:36:40.932Z,957.75
2023-01-19T11:37:40.900Z,957.77
2023-01-19T11:38:40.903Z,957.77
2023-01-19T11:39:40.940Z,957.81
2023-01-19T11:40:40.894Z,957.77
2023-01-19T11:41:40.912Z,957.75
2023-01-19T11:42:40.842Z,957.86
2023-01-19T11:43:49.054Z,957.85
2023-01-19T11:44:40.823Z,957.85
2023-01-19T11:45:40.848Z,957.85
2023-01-19T11:46:40.826Z,957.82
2023-01-19T11:47:40.809Z,957.84
2023-01-19T11:48:40.781Z,957.83
2023-01-19T11:49:40.768Z,957.79
2023-01-19T11:50:40.768Z,957.79
2023-01-19T11:51:40.785Z,957.86
2023-01-19T11:52:42.939Z,957.83
2023-01-19T11:53:40.717Z,957.87
2023-01-19T11:54:40.703Z,957.84
2023-01-19T11:55:40.727Z,957.83
2023-01-19T11:56:40.711Z,957.88
2023-01-19T11:57:40.760Z,957.90
2023-01-19T11:58:40.703Z,957.91
2023-01-19T11:59:40.692Z,957.94
2023-01-19T12:00:40.637Z,957.91
2023-01-19T12:01:40.664Z,957.94
2023-01-19T12:02:40.634Z,957.91
2023-01-19T12:03:40.708Z,957.90
2023-01-19T12:04:40.623Z,957.87
2023-01-19T12:05:40.713Z,957.87
2023-01-19T12:06:40.591Z,957.87
2023-01-19T12:07:40.575Z,957.86
2023-01-19T12:08:40.557Z,957.87
2023-01-19T12:09:40.542Z,957.95
2023-01-19T12:10:40.528Z,957.99
2023-01-19T12:11:40.664Z,957.97
2023-01-19T12:12:41.286Z,957.95
2023-01-19T12:13:40.515Z,957.98
2023-01-19T12:14:40.493Z,957.99
2023-01-19T12:15:40.483Z,958.00
2023-01-19T12:16:40.496Z,958.01
2023-01-19T12:17:40.484Z,958.04
2023-01-19T12:18:40.462Z,958.13
2023-01-19T12:19:41.920Z,958.11
2023-01-19T12:20:40.473Z,958.04
2023-01-19T12:21:40.417Z,958.08
2023-01-19T12:22:40.418Z,958.11
2023-01-19T12:23:40.393Z,958.11
2023-01-19T12:24:40.385Z,958.14
2023-01-19T12:25:40.368Z,958.13
2023-01-19T12:26:40.357Z,958.08
2023-01-19T12:27:40.424Z,958.09
2023-01-19T12:28:40.403Z,958.13